Marine Rouge — JG5115 — position and weather

sailwx.info

Track history (hours):
 
Tides and Currents Weather Stations Pressure Air Temp Water Temp Dewpoint Dewpoint Depression Visibility Wind Speed Wind Dir Waves Ship Positions

Marine Rouge

Last reported at 2017-Aug-18 12:33 UTC. Time now 2017-Aug-18 20:13 UTC.
Position N 35°27' E 139°39'.

Length 52 m; draft 2.8 m.

Type: Passenger vessel. MMSI: 431000518.

Date/timePositionNaut miles runAvg speedWind from/ knotsBaromVisibWave heightAir tempDewpointWater temp
2017-Aug-18 12:33N 35°27' E 139°39'0 1.2
2017-Aug-18 12:30N 35°27' E 139°39'0 0.1
2017-Aug-18 12:00N 35°27' E 139°39'2 3.1
2017-Aug-18 11:30N 35°28' E 139°40'2 4.6
2017-Aug-18 11:00N 35°27' E 139°43'3 6.4
2017-Aug-18 10:31N 35°27' E 139°39'1 1.2
2017-Aug-18 10:00N 35°27' E 139°39'0 0.0
2017-Aug-18 09:30N 35°27' E 139°39'0 0.0
2017-Aug-18 09:00N 35°27' E 139°39'0 0.0
2017-Aug-18 08:30N 35°27' E 139°39'3 5.7
2017-Aug-18 08:00N 35°28' E 139°42'3 6.0
2017-Aug-18 07:30N 35°27' E 139°39'1 1.0
2017-Aug-18 07:00N 35°27' E 139°39'0 0.0
2017-Aug-18 06:30N 35°27' E 139°39'3 5.8
2017-Aug-18 06:00N 35°28' E 139°43'3 5.8
2017-Aug-18 05:30N 35°27' E 139°39'0 0.3
2017-Aug-18 05:00N 35°27' E 139°39'0 0.3
2017-Aug-18 04:30N 35°27' E 139°39'3 5.7
2017-Aug-18 04:00N 35°28' E 139°42'3 6.1
2017-Aug-18 03:30N 35°27' E 139°39'1 1.0
2017-Aug-18 03:00N 35°27' E 139°39'0 0.0
2017-Aug-18 02:30N 35°27' E 139°39'0 0.0
2017-Aug-18 02:00N 35°27' E 139°39'0 0.0
2017-Aug-18 01:30N 35°27' E 139°39'0 0.0
2017-Aug-18 01:00N 35°27' E 139°39'0 0.0
2017-Aug-18 00:30N 35°27' E 139°39'0 0.0
2017-Aug-17 12:37N 35°27' E 139°39'1 4.9
2017-Aug-17 12:31N 35°27' E 139°39'1 1.1
2017-Aug-17 12:00N 35°27' E 139°39'2 3.2
2017-Aug-17 11:30N 35°28' E 139°40'2 4.0
2017-Aug-17 11:00N 35°26' E 139°42'3 5.4
2017-Aug-17 10:30N 35°27' E 139°39'1 1.0
2017-Aug-17 10:00N 35°27' E 139°39'0 0.0
2017-Aug-17 09:30N 35°27' E 139°39'0 0.0
2017-Aug-17 09:00N 35°27' E 139°39'0 0.0
2017-Aug-17 08:30N 35°27' E 139°39'3 5.6
2017-Aug-17 08:01N 35°28' E 139°42'3 5.4
2017-Aug-17 07:30N 35°27' E 139°39'1 1.2
2017-Aug-17 07:00N 35°27' E 139°39'0 0.0
2017-Aug-17 06:30N 35°27' E 139°39'3 5.6
2017-Aug-17 06:01N 35°28' E 139°42'3 5.6
2017-Aug-17 05:30N 35°27' E 139°39'0 0.0
2017-Aug-17 05:00N 35°27' E 139°39'0 0.0
2017-Aug-17 04:30N 35°27' E 139°39'3 5.8
2017-Aug-17 04:00N 35°28' E 139°42'3 6.3
2017-Aug-17 03:30N 35°27' E 139°39'1 1.0
2017-Aug-17 03:00N 35°27' E 139°39'0 0.0
2017-Aug-17 02:30N 35°27' E 139°39'0 0.1
2017-Aug-17 02:00N 35°27' E 139°39'0 0.1
2017-Aug-17 01:30N 35°27' E 139°39'0 0.1
2017-Aug-17 01:00N 35°27' E 139°39'0 0.0
2017-Aug-16 11:55N 35°27' E 139°39'1 2.0
2017-Aug-16 11:30N 35°28' E 139°39'3 5.6
2017-Aug-16 11:00N 35°28' E 139°43'3 6.0
2017-Aug-16 10:31N 35°27' E 139°39'1 1.2
2017-Aug-16 10:00N 35°27' E 139°39'0 0.0
2017-Aug-16 09:30N 35°27' E 139°39'0 0.0
2017-Aug-16 09:00N 35°27' E 139°39'2 4.8
2017-Aug-16 08:30N 35°28' E 139°41'2 4.0
2017-Aug-16 08:00N 35°28' E 139°39'1 1.1
2017-Aug-16 07:30N 35°27' E 139°39'1 1.0
2017-Aug-16 07:00N 35°27' E 139°39'0 0.0
2017-Aug-16 06:30N 35°27' E 139°39'3 5.7
2017-Aug-16 06:00N 35°28' E 139°42'3 5.7
2017-Aug-16 05:30N 35°27' E 139°39'0 0.0
2017-Aug-16 05:00N 35°27' E 139°39'0 0.0
2017-Aug-16 04:30N 35°27' E 139°39'3 5.5
2017-Aug-16 04:01N 35°28' E 139°42'3 5.3
2017-Aug-16 03:30N 35°27' E 139°39'1 1.2
2017-Aug-16 03:00N 35°27' E 139°39'0 0.0
2017-Aug-16 02:30N 35°27' E 139°39'0 0.0
2017-Aug-16 02:00N 35°27' E 139°39'0 0.0
2017-Aug-16 01:30N 35°27' E 139°39'0 0.0
2017-Aug-16 01:00N 35°27' E 139°39'0 0.0
2017-Aug-16 00:30N 35°27' E 139°39'0 0.0
2017-Aug-15 12:37N 35°27' E 139°39'1 5.2
2017-Aug-15 12:30N 35°27' E 139°39'1 1.1
2017-Aug-15 12:00N 35°27' E 139°39'2 3.6
2017-Aug-15 11:30N 35°28' E 139°41'1 2.0
2017-Aug-15 11:00N 35°27' E 139°41'2 3.3
2017-Aug-15 10:30N 35°27' E 139°39'1 1.0
2017-Aug-15 10:00N 35°27' E 139°39'0 0.0
2017-Aug-15 09:30N 35°27' E 139°39'0 0.0
2017-Aug-15 09:00N 35°27' E 139°39'0 0.0
2017-Aug-15 08:30N 35°27' E 139°39'3 5.4
2017-Aug-15 08:00N 35°28' E 139°42'3 5.0
2017-Aug-15 07:31N 35°27' E 139°39'1 1.2
2017-Aug-15 07:00N 35°27' E 139°39'0 0.0
2017-Aug-15 06:30N 35°27' E 139°39'1 2.6
2017-Aug-15 06:00N 35°27' E 139°41'1 2.6
2017-Aug-15 05:30N 35°27' E 139°39'0 0.0
2017-Aug-15 05:00N 35°27' E 139°39'0 0.0
2017-Aug-15 04:30N 35°27' E 139°39'3 5.7
2017-Aug-15 04:00N 35°28' E 139°42'3 5.2
2017-Aug-15 03:30N 35°28' E 139°39'1 1.8
2017-Aug-15 03:00N 35°27' E 139°39'0 0.0
2017-Aug-15 02:30N 35°27' E 139°39'3 5.6
2017-Aug-15 02:00N 35°28' E 139°42'3 5.6
2017-Aug-15 01:30N 35°27' E 139°39'0 0.0
2017-Aug-15 01:00N 35°27' E 139°39'0 0.0
2017-Aug-15 00:30N 35°27' E 139°39'0 0.0
2017-Aug-14 12:31N 35°27' E 139°39'0 0.0
2017-Aug-14 12:30N 35°27' E 139°39'0 0.0
2017-Aug-14 12:00N 35°27' E 139°39'1 2.7
2017-Aug-14 11:31N 35°28' E 139°40'2 4.0
2017-Aug-14 11:00N 35°27' E 139°42'3 5.7
2017-Aug-14 10:30N 35°27' E 139°39'1 1.2
2017-Aug-14 10:00N 35°27' E 139°39'0 0.0
2017-Aug-14 09:31N 35°27' E 139°39'0 0.0
2017-Aug-14 09:00N 35°27' E 139°39'0 0.0
2017-Aug-14 08:31N 35°27' E 139°39'3 5.7
2017-Aug-14 08:00N 35°28' E 139°42'3 6.0
2017-Aug-14 07:31N 35°27' E 139°39'1 1.0
2017-Aug-14 07:00N 35°27' E 139°39'0 0.0
2017-Aug-14 06:31N 35°27' E 139°39'3 5.7
2017-Aug-14 06:01N 35°28' E 139°42'3 5.7
2017-Aug-14 05:30N 35°27' E 139°39'0 0.0
2017-Aug-14 05:00N 35°27' E 139°39'0 0.0
2017-Aug-14 04:31N 35°27' E 139°39'3 5.7
2017-Aug-14 04:01N 35°28' E 139°42'3 6.0
2017-Aug-14 03:30N 35°27' E 139°39'1 1.0
2017-Aug-14 03:01N 35°27' E 139°39'0 0.0
2017-Aug-14 02:30N 35°27' E 139°39'3 5.8
2017-Aug-14 02:01N 35°28' E 139°42'3 5.8
2017-Aug-14 01:31N 35°27' E 139°39'0 0.0
2017-Aug-14 01:00N 35°27' E 139°39'0 0.0
2017-Aug-14 00:31N 35°27' E 139°39'0 0.0
2017-Aug-13 12:30N 35°27' E 139°39'0 0.0
2017-Aug-13 12:00N 35°27' E 139°39'2 3.2
2017-Aug-13 11:30N 35°28' E 139°40'2 3.5
2017-Aug-13 11:00N 35°27' E 139°42'3 5.5
2017-Aug-13 10:30N 35°27' E 139°39'1 1.0
2017-Aug-13 10:00N 35°27' E 139°39'0 0.0
2017-Aug-13 09:30N 35°27' E 139°39'0 0.0
2017-Aug-13 09:00N 35°27' E 139°39'0 0.0
2017-Aug-13 08:30N 35°27' E 139°39'3 5.7
2017-Aug-13 08:00N 35°27' E 139°43'3 6.3
2017-Aug-13 07:30N 35°27' E 139°39'1 1.0
2017-Aug-13 07:00N 35°27' E 139°39'0 0.0
2017-Aug-13 06:30N 35°27' E 139°39'1 2.2
2017-Aug-13 06:00N 35°27' E 139°40'1 2.2
2017-Aug-13 05:30N 35°27' E 139°39'0 0.0
2017-Aug-13 05:00N 35°27' E 139°39'1 1.8
2017-Aug-13 04:30N 35°28' E 139°40'3 5.1
2017-Aug-13 04:01N 35°27' E 139°43'3 6.4
2017-Aug-13 03:31N 35°27' E 139°39'1 1.0
2017-Aug-13 03:00N 35°27' E 139°39'0 0.8
2017-Aug-13 02:30N 35°27' E 139°39'1 1.8
2017-Aug-13 02:00N 35°28' E 139°39'1 2.3
2017-Aug-13 01:30N 35°27' E 139°39'0 0.0
2017-Aug-13 01:00N 35°27' E 139°39'0 0.0
2017-Aug-13 00:30N 35°27' E 139°39'0 0.0
2017-Aug-12 12:32N 35°27' E 139°39'0 0.6
2017-Aug-12 12:30N 35°27' E 139°39'0 0.0
2017-Aug-12 12:01N 35°27' E 139°39'2 4.1
2017-Aug-12 11:31N 35°28' E 139°41'2 4.4
2017-Aug-12 11:00N 35°26' E 139°42'3 6.1
2017-Aug-12 10:30N 35°27' E 139°39'1 1.0
2017-Aug-12 10:00N 35°27' E 139°39'0 0.0
2017-Aug-12 09:30N 35°27' E 139°39'0 0.0
2017-Aug-12 09:00N 35°27' E 139°39'0 0.0
2017-Aug-12 08:30N 35°27' E 139°39'3 6.0
2017-Aug-12 08:00N 35°27' E 139°43'3 6.5
2017-Aug-12 07:30N 35°27' E 139°39'1 1.1
2017-Aug-12 07:00N 35°27' E 139°39'0 0.0
2017-Aug-12 06:30N 35°27' E 139°39'3 5.7
2017-Aug-12 06:01N 35°27' E 139°42'3 5.6
2017-Aug-12 05:30N 35°27' E 139°39'0 0.1
2017-Aug-12 05:00N 35°27' E 139°39'0 0.1
2017-Aug-12 04:30N 35°27' E 139°39'3 5.6
2017-Aug-12 04:00N 35°28' E 139°42'3 5.9
2017-Aug-12 03:30N 35°27' E 139°39'1 1.0
2017-Aug-12 03:00N 35°27' E 139°39'0 0.0
2017-Aug-12 02:30N 35°27' E 139°39'3 5.7
2017-Aug-12 02:00N 35°28' E 139°42'3 5.7
2017-Aug-12 01:30N 35°27' E 139°39'0 0.0
2017-Aug-12 01:00N 35°27' E 139°39'0 0.0
2017-Aug-12 00:30N 35°27' E 139°39'0 0.0
2017-Aug-11 12:37N 35°27' E 139°39'0 3.7
2017-Aug-11 12:30N 35°27' E 139°39'0 0.8
2017-Aug-11 12:01N 35°27' E 139°39'1 2.1
2017-Aug-11 11:30N 35°28' E 139°40'2 4.5
2017-Aug-11 11:00N 35°27' E 139°42'2 4.5
2017-Aug-11 10:31N 35°27' E 139°40'1 1.7
2017-Aug-11 10:00N 35°27' E 139°39'0 0.0
2017-Aug-11 09:30N 35°27' E 139°39'0 0.0
2017-Aug-11 09:00N 35°27' E 139°39'1 2.1
2017-Aug-11 08:30N 35°28' E 139°40'3 5.1
2017-Aug-11 08:01N 35°27' E 139°43'3 6.3
2017-Aug-11 07:30N 35°27' E 139°39'1 1.1
2017-Aug-11 07:00N 35°27' E 139°39'0 0.0
2017-Aug-11 06:31N 35°27' E 139°39'3 5.7
2017-Aug-11 06:00N 35°28' E 139°42'3 5.8
2017-Aug-11 05:30N 35°27' E 139°39'0 0.0
2017-Aug-11 05:01N 35°27' E 139°39'2 3.1
2017-Aug-11 04:30N 35°28' E 139°40'1 1.4
2017-Aug-11 04:01N 35°27' E 139°40'1 2.4
2017-Aug-11 03:31N 35°27' E 139°39'1 1.0
2017-Aug-11 03:01N 35°27' E 139°39'0 0.0
2017-Aug-11 02:31N 35°27' E 139°39'3 5.6
2017-Aug-11 02:01N 35°28' E 139°42'3 5.6
2017-Aug-11 01:30N 35°27' E 139°39'0 0.0
2017-Aug-11 01:00N 35°27' E 139°39'0 0.0
2017-Aug-11 00:31N 35°27' E 139°39'0 0.0
2017-Aug-10 12:30N 35°27' E 139°39'0 0.0
2017-Aug-10 12:01N 35°27' E 139°39'3 5.0
2017-Aug-10 11:31N 35°28' E 139°41'1 3.0
2017-Aug-10 11:01N 35°27' E 139°41'2 3.6
2017-Aug-10 10:31N 35°27' E 139°39'1 1.2
2017-Aug-10 10:01N 35°27' E 139°39'0 0.0
2017-Aug-10 09:31N 35°27' E 139°39'0 0.0
2017-Aug-10 09:00N 35°27' E 139°39'0 0.0
2017-Aug-10 08:31N 35°27' E 139°39'3 5.7
2017-Aug-10 08:01N 35°28' E 139°42'3 6.1
2017-Aug-10 07:30N 35°27' E 139°39'1 1.0
2017-Aug-10 07:00N 35°27' E 139°39'0 0.1
2017-Aug-10 06:30N 35°27' E 139°39'3 5.8
2017-Aug-10 06:01N 35°28' E 139°42'3 5.7
2017-Aug-10 05:30N 35°27' E 139°39'1 1.0
2017-Aug-10 05:00N 35°27' E 139°39'1 1.0
2017-Aug-10 04:30N 35°27' E 139°39'3 5.5
2017-Aug-10 04:00N 35°28' E 139°42'3 5.9
2017-Aug-10 03:31N 35°27' E 139°39'1 1.0
2017-Aug-10 03:00N 35°27' E 139°39'0 0.0
2017-Aug-10 02:31N 35°27' E 139°39'0 0.0
2017-Aug-10 02:00N 35°27' E 139°39'0 0.0
2017-Aug-10 01:31N 35°27' E 139°39'0 0.0
2017-Aug-10 01:01N 35°27' E 139°39'0 0.0
2017-Aug-10 00:31N 35°27' E 139°39'0 0.0
2017-Aug-09 11:56N 35°27' E 139°39'1 1.6
2017-Aug-09 11:31N 35°27' E 139°39'2 3.3
2017-Aug-09 11:00N 35°28' E 139°41'2 3.1
2017-Aug-09 10:31N 35°27' E 139°42'2 4.1
2017-Aug-09 10:00N 35°27' E 139°39'0 0.0
2017-Aug-09 09:30N 35°27' E 139°39'0 0.0
2017-Aug-09 09:00N 35°27' E 139°39'0 0.9
2017-Aug-09 08:30N 35°27' E 139°39'3 5.0
2017-Aug-09 08:00N 35°28' E 139°42'3 5.5
2017-Aug-09 07:30N 35°27' E 139°39'1 1.2
2017-Aug-09 07:00N 35°27' E 139°39'0 0.0
2017-Aug-09 06:30N 35°27' E 139°39'1 2.1
2017-Aug-09 06:00N 35°28' E 139°39'1 2.1
2017-Aug-09 05:30N 35°27' E 139°39'0 0.0
2017-Aug-09 05:00N 35°27' E 139°39'2 3.7
2017-Aug-09 04:30N 35°28' E 139°41'1 1.9
2017-Aug-09 04:00N 35°27' E 139°40'1 2.2
2017-Aug-09 03:30N 35°27' E 139°39'1 1.0
2017-Aug-09 03:00N 35°27' E 139°39'0 0.0
2017-Aug-09 02:30N 35°27' E 139°39'0 0.0
2017-Aug-09 02:00N 35°27' E 139°39'0 0.0
2017-Aug-09 01:30N 35°27' E 139°39'0 0.0
2017-Aug-09 01:00N 35°27' E 139°39'  
Track history (hours):
 
Tides and Currents Weather Stations Pressure Air Temp Water Temp Dewpoint Dewpoint Depression Visibility Wind Speed Wind Dir Waves Ship Positions

Marine Rouge

Last reported at 2017-Aug-18 12:33 UTC. Time now 2017-Aug-18 20:13 UTC.
Position N 35°27' E 139°39'.

Length 52 m; draft 2.8 m.

Type: Passenger vessel. MMSI: 431000518.

Date/timePositionNaut miles runAvg speedWind from/ knotsBaromVisibWave heightAir tempDewpointWater temp
2017-Aug-18 12:33N 35°27' E 139°39'0 1.2
2017-Aug-18 12:30N 35°27' E 139°39'0 0.1
2017-Aug-18 12:00N 35°27' E 139°39'2 3.1
2017-Aug-18 11:30N 35°28' E 139°40'2 4.6
2017-Aug-18 11:00N 35°27' E 139°43'3 6.4
2017-Aug-18 10:31N 35°27' E 139°39'1 1.2
2017-Aug-18 10:00N 35°27' E 139°39'0 0.0
2017-Aug-18 09:30N 35°27' E 139°39'0 0.0
2017-Aug-18 09:00N 35°27' E 139°39'0 0.0
2017-Aug-18 08:30N 35°27' E 139°39'3 5.7
2017-Aug-18 08:00N 35°28' E 139°42'3 6.0
2017-Aug-18 07:30N 35°27' E 139°39'1 1.0
2017-Aug-18 07:00N 35°27' E 139°39'0 0.0
2017-Aug-18 06:30N 35°27' E 139°39'3 5.8
2017-Aug-18 06:00N 35°28' E 139°43'3 5.8
2017-Aug-18 05:30N 35°27' E 139°39'0 0.3
2017-Aug-18 05:00N 35°27' E 139°39'0 0.3
2017-Aug-18 04:30N 35°27' E 139°39'3 5.7
2017-Aug-18 04:00N 35°28' E 139°42'3 6.1
2017-Aug-18 03:30N 35°27' E 139°39'1 1.0
2017-Aug-18 03:00N 35°27' E 139°39'0 0.0
2017-Aug-18 02:30N 35°27' E 139°39'0 0.0
2017-Aug-18 02:00N 35°27' E 139°39'0 0.0
2017-Aug-18 01:30N 35°27' E 139°39'0 0.0
2017-Aug-18 01:00N 35°27' E 139°39'0 0.0
2017-Aug-18 00:30N 35°27' E 139°39'0 0.0
2017-Aug-17 12:37N 35°27' E 139°39'1 4.9
2017-Aug-17 12:31N 35°27' E 139°39'1 1.1
2017-Aug-17 12:00N 35°27' E 139°39'2 3.2
2017-Aug-17 11:30N 35°28' E 139°40'2 4.0
2017-Aug-17 11:00N 35°26' E 139°42'3 5.4
2017-Aug-17 10:30N 35°27' E 139°39'1 1.0
2017-Aug-17 10:00N 35°27' E 139°39'0 0.0
2017-Aug-17 09:30N 35°27' E 139°39'0 0.0
2017-Aug-17 09:00N 35°27' E 139°39'0 0.0
2017-Aug-17 08:30N 35°27' E 139°39'3 5.6
2017-Aug-17 08:01N 35°28' E 139°42'3 5.4
2017-Aug-17 07:30N 35°27' E 139°39'1 1.2
2017-Aug-17 07:00N 35°27' E 139°39'0 0.0
2017-Aug-17 06:30N 35°27' E 139°39'3 5.6
2017-Aug-17 06:01N 35°28' E 139°42'3 5.6
2017-Aug-17 05:30N 35°27' E 139°39'0 0.0
2017-Aug-17 05:00N 35°27' E 139°39'0 0.0
2017-Aug-17 04:30N 35°27' E 139°39'3 5.8
2017-Aug-17 04:00N 35°28' E 139°42'3 6.3
2017-Aug-17 03:30N 35°27' E 139°39'1 1.0
2017-Aug-17 03:00N 35°27' E 139°39'0 0.0
2017-Aug-17 02:30N 35°27' E 139°39'0 0.1
2017-Aug-17 02:00N 35°27' E 139°39'0 0.1
2017-Aug-17 01:30N 35°27' E 139°39'0 0.1
2017-Aug-17 01:00N 35°27' E 139°39'0 0.0
2017-Aug-16 11:55N 35°27' E 139°39'1 2.0
2017-Aug-16 11:30N 35°28' E 139°39'3 5.6
2017-Aug-16 11:00N 35°28' E 139°43'3 6.0
2017-Aug-16 10:31N 35°27' E 139°39'1 1.2
2017-Aug-16 10:00N 35°27' E 139°39'0 0.0
2017-Aug-16 09:30N 35°27' E 139°39'0 0.0
2017-Aug-16 09:00N 35°27' E 139°39'2 4.8
2017-Aug-16 08:30N 35°28' E 139°41'2 4.0
2017-Aug-16 08:00N 35°28' E 139°39'1 1.1
2017-Aug-16 07:30N 35°27' E 139°39'1 1.0
2017-Aug-16 07:00N 35°27' E 139°39'0 0.0
2017-Aug-16 06:30N 35°27' E 139°39'3 5.7
2017-Aug-16 06:00N 35°28' E 139°42'3 5.7
2017-Aug-16 05:30N 35°27' E 139°39'0 0.0
2017-Aug-16 05:00N 35°27' E 139°39'0 0.0
2017-Aug-16 04:30N 35°27' E 139°39'3 5.5
2017-Aug-16 04:01N 35°28' E 139°42'3 5.3
2017-Aug-16 03:30N 35°27' E 139°39'1 1.2
2017-Aug-16 03:00N 35°27' E 139°39'0 0.0
2017-Aug-16 02:30N 35°27' E 139°39'0 0.0
2017-Aug-16 02:00N 35°27' E 139°39'0 0.0
2017-Aug-16 01:30N 35°27' E 139°39'0 0.0
2017-Aug-16 01:00N 35°27' E 139°39'0 0.0
2017-Aug-16 00:30N 35°27' E 139°39'0 0.0
2017-Aug-15 12:37N 35°27' E 139°39'1 5.2
2017-Aug-15 12:30N 35°27' E 139°39'1 1.1
2017-Aug-15 12:00N 35°27' E 139°39'2 3.6
2017-Aug-15 11:30N 35°28' E 139°41'1 2.0
2017-Aug-15 11:00N 35°27' E 139°41'2 3.3
2017-Aug-15 10:30N 35°27' E 139°39'1 1.0
2017-Aug-15 10:00N 35°27' E 139°39'0 0.0
2017-Aug-15 09:30N 35°27' E 139°39'0 0.0
2017-Aug-15 09:00N 35°27' E 139°39'0 0.0
2017-Aug-15 08:30N 35°27' E 139°39'3 5.4
2017-Aug-15 08:00N 35°28' E 139°42'3 5.0
2017-Aug-15 07:31N 35°27' E 139°39'1 1.2
2017-Aug-15 07:00N 35°27' E 139°39'0 0.0
2017-Aug-15 06:30N 35°27' E 139°39'1 2.6
2017-Aug-15 06:00N 35°27' E 139°41'1 2.6
2017-Aug-15 05:30N 35°27' E 139°39'0 0.0
2017-Aug-15 05:00N 35°27' E 139°39'0 0.0
2017-Aug-15 04:30N 35°27' E 139°39'3 5.7
2017-Aug-15 04:00N 35°28' E 139°42'3 5.2
2017-Aug-15 03:30N 35°28' E 139°39'1 1.8
2017-Aug-15 03:00N 35°27' E 139°39'0 0.0
2017-Aug-15 02:30N 35°27' E 139°39'3 5.6
2017-Aug-15 02:00N 35°28' E 139°42'3 5.6
2017-Aug-15 01:30N 35°27' E 139°39'0 0.0
2017-Aug-15 01:00N 35°27' E 139°39'0 0.0
2017-Aug-15 00:30N 35°27' E 139°39'0 0.0
2017-Aug-14 12:31N 35°27' E 139°39'0 0.0
2017-Aug-14 12:30N 35°27' E 139°39'0 0.0
2017-Aug-14 12:00N 35°27' E 139°39'1 2.7
2017-Aug-14 11:31N 35°28' E 139°40'2 4.0
2017-Aug-14 11:00N 35°27' E 139°42'3 5.7
2017-Aug-14 10:30N 35°27' E 139°39'1 1.2
2017-Aug-14 10:00N 35°27' E 139°39'0 0.0
2017-Aug-14 09:31N 35°27' E 139°39'0 0.0
2017-Aug-14 09:00N 35°27' E 139°39'0 0.0
2017-Aug-14 08:31N 35°27' E 139°39'3 5.7
2017-Aug-14 08:00N 35°28' E 139°42'3 6.0
2017-Aug-14 07:31N 35°27' E 139°39'1 1.0
2017-Aug-14 07:00N 35°27' E 139°39'0 0.0
2017-Aug-14 06:31N 35°27' E 139°39'3 5.7
2017-Aug-14 06:01N 35°28' E 139°42'3 5.7
2017-Aug-14 05:30N 35°27' E 139°39'0 0.0
2017-Aug-14 05:00N 35°27' E 139°39'0 0.0
2017-Aug-14 04:31N 35°27' E 139°39'3 5.7
2017-Aug-14 04:01N 35°28' E 139°42'3 6.0
2017-Aug-14 03:30N 35°27' E 139°39'1 1.0
2017-Aug-14 03:01N 35°27' E 139°39'0 0.0
2017-Aug-14 02:30N 35°27' E 139°39'3 5.8
2017-Aug-14 02:01N 35°28' E 139°42'3 5.8
2017-Aug-14 01:31N 35°27' E 139°39'0 0.0
2017-Aug-14 01:00N 35°27' E 139°39'0 0.0
2017-Aug-14 00:31N 35°27' E 139°39'0 0.0
2017-Aug-13 12:30N 35°27' E 139°39'0 0.0
2017-Aug-13 12:00N 35°27' E 139°39'2 3.2
2017-Aug-13 11:30N 35°28' E 139°40'2 3.5
2017-Aug-13 11:00N 35°27' E 139°42'3 5.5
2017-Aug-13 10:30N 35°27' E 139°39'1 1.0
2017-Aug-13 10:00N 35°27' E 139°39'0 0.0
2017-Aug-13 09:30N 35°27' E 139°39'0 0.0
2017-Aug-13 09:00N 35°27' E 139°39'0 0.0
2017-Aug-13 08:30N 35°27' E 139°39'3 5.7
2017-Aug-13 08:00N 35°27' E 139°43'3 6.3
2017-Aug-13 07:30N 35°27' E 139°39'1 1.0
2017-Aug-13 07:00N 35°27' E 139°39'0 0.0
2017-Aug-13 06:30N 35°27' E 139°39'1 2.2
2017-Aug-13 06:00N 35°27' E 139°40'1 2.2
2017-Aug-13 05:30N 35°27' E 139°39'0 0.0
2017-Aug-13 05:00N 35°27' E 139°39'1 1.8
2017-Aug-13 04:30N 35°28' E 139°40'3 5.1
2017-Aug-13 04:01N 35°27' E 139°43'3 6.4
2017-Aug-13 03:31N 35°27' E 139°39'1 1.0
2017-Aug-13 03:00N 35°27' E 139°39'0 0.8
2017-Aug-13 02:30N 35°27' E 139°39'1 1.8
2017-Aug-13 02:00N 35°28' E 139°39'1 2.3
2017-Aug-13 01:30N 35°27' E 139°39'0 0.0
2017-Aug-13 01:00N 35°27' E 139°39'0 0.0
2017-Aug-13 00:30N 35°27' E 139°39'0 0.0
2017-Aug-12 12:32N 35°27' E 139°39'0 0.6
2017-Aug-12 12:30N 35°27' E 139°39'0 0.0
2017-Aug-12 12:01N 35°27' E 139°39'2 4.1
2017-Aug-12 11:31N 35°28' E 139°41'2 4.4
2017-Aug-12 11:00N 35°26' E 139°42'3 6.1
2017-Aug-12 10:30N 35°27' E 139°39'1 1.0
2017-Aug-12 10:00N 35°27' E 139°39'0 0.0
2017-Aug-12 09:30N 35°27' E 139°39'0 0.0
2017-Aug-12 09:00N 35°27' E 139°39'0 0.0
2017-Aug-12 08:30N 35°27' E 139°39'3 6.0
2017-Aug-12 08:00N 35°27' E 139°43'3 6.5
2017-Aug-12 07:30N 35°27' E 139°39'1 1.1
2017-Aug-12 07:00N 35°27' E 139°39'0 0.0
2017-Aug-12 06:30N 35°27' E 139°39'3 5.7
2017-Aug-12 06:01N 35°27' E 139°42'3 5.6
2017-Aug-12 05:30N 35°27' E 139°39'0 0.1
2017-Aug-12 05:00N 35°27' E 139°39'0 0.1
2017-Aug-12 04:30N 35°27' E 139°39'3 5.6
2017-Aug-12 04:00N 35°28' E 139°42'3 5.9
2017-Aug-12 03:30N 35°27' E 139°39'1 1.0
2017-Aug-12 03:00N 35°27' E 139°39'0 0.0
2017-Aug-12 02:30N 35°27' E 139°39'3 5.7
2017-Aug-12 02:00N 35°28' E 139°42'3 5.7
2017-Aug-12 01:30N 35°27' E 139°39'0 0.0
2017-Aug-12 01:00N 35°27' E 139°39'0 0.0
2017-Aug-12 00:30N 35°27' E 139°39'0 0.0
2017-Aug-11 12:37N 35°27' E 139°39'0 3.7
2017-Aug-11 12:30N 35°27' E 139°39'0 0.8
2017-Aug-11 12:01N 35°27' E 139°39'1 2.1
2017-Aug-11 11:30N 35°28' E 139°40'2 4.5
2017-Aug-11 11:00N 35°27' E 139°42'2 4.5
2017-Aug-11 10:31N 35°27' E 139°40'1 1.7
2017-Aug-11 10:00N 35°27' E 139°39'0 0.0
2017-Aug-11 09:30N 35°27' E 139°39'0 0.0
2017-Aug-11 09:00N 35°27' E 139°39'1 2.1
2017-Aug-11 08:30N 35°28' E 139°40'3 5.1
2017-Aug-11 08:01N 35°27' E 139°43'3 6.3
2017-Aug-11 07:30N 35°27' E 139°39'1 1.1
2017-Aug-11 07:00N 35°27' E 139°39'0 0.0
2017-Aug-11 06:31N 35°27' E 139°39'3 5.7
2017-Aug-11 06:00N 35°28' E 139°42'3 5.8
2017-Aug-11 05:30N 35°27' E 139°39'0 0.0
2017-Aug-11 05:01N 35°27' E 139°39'2 3.1
2017-Aug-11 04:30N 35°28' E 139°40'1 1.4
2017-Aug-11 04:01N 35°27' E 139°40'1 2.4
2017-Aug-11 03:31N 35°27' E 139°39'1 1.0
2017-Aug-11 03:01N 35°27' E 139°39'0 0.0
2017-Aug-11 02:31N 35°27' E 139°39'3 5.6
2017-Aug-11 02:01N 35°28' E 139°42'3 5.6
2017-Aug-11 01:30N 35°27' E 139°39'0 0.0
2017-Aug-11 01:00N 35°27' E 139°39'0 0.0
2017-Aug-11 00:31N 35°27' E 139°39'0 0.0
2017-Aug-10 12:30N 35°27' E 139°39'0 0.0
2017-Aug-10 12:01N 35°27' E 139°39'3 5.0
2017-Aug-10 11:31N 35°28' E 139°41'1 3.0
2017-Aug-10 11:01N 35°27' E 139°41'2 3.6
2017-Aug-10 10:31N 35°27' E 139°39'1 1.2
2017-Aug-10 10:01N 35°27' E 139°39'0 0.0
2017-Aug-10 09:31N 35°27' E 139°39'0 0.0
2017-Aug-10 09:00N 35°27' E 139°39'0 0.0
2017-Aug-10 08:31N 35°27' E 139°39'3 5.7
2017-Aug-10 08:01N 35°28' E 139°42'3 6.1
2017-Aug-10 07:30N 35°27' E 139°39'1 1.0
2017-Aug-10 07:00N 35°27' E 139°39'0 0.1
2017-Aug-10 06:30N 35°27' E 139°39'3 5.8
2017-Aug-10 06:01N 35°28' E 139°42'3 5.7
2017-Aug-10 05:30N 35°27' E 139°39'1 1.0
2017-Aug-10 05:00N 35°27' E 139°39'1 1.0
2017-Aug-10 04:30N 35°27' E 139°39'3 5.5
2017-Aug-10 04:00N 35°28' E 139°42'3 5.9
2017-Aug-10 03:31N 35°27' E 139°39'1 1.0
2017-Aug-10 03:00N 35°27' E 139°39'0 0.0
2017-Aug-10 02:31N 35°27' E 139°39'0 0.0
2017-Aug-10 02:00N 35°27' E 139°39'0 0.0
2017-Aug-10 01:31N 35°27' E 139°39'0 0.0
2017-Aug-10 01:01N 35°27' E 139°39'0 0.0
2017-Aug-10 00:31N 35°27' E 139°39'0 0.0
2017-Aug-09 11:56N 35°27' E 139°39'1 1.6
2017-Aug-09 11:31N 35°27' E 139°39'2 3.3
2017-Aug-09 11:00N 35°28' E 139°41'2 3.1
2017-Aug-09 10:31N 35°27' E 139°42'2 4.1
2017-Aug-09 10:00N 35°27' E 139°39'0 0.0
2017-Aug-09 09:30N 35°27' E 139°39'0 0.0
2017-Aug-09 09:00N 35°27' E 139°39'0 0.9
2017-Aug-09 08:30N 35°27' E 139°39'3 5.0
2017-Aug-09 08:00N 35°28' E 139°42'3 5.5
2017-Aug-09 07:30N 35°27' E 139°39'1 1.2
2017-Aug-09 07:00N 35°27' E 139°39'0 0.0
2017-Aug-09 06:30N 35°27' E 139°39'1 2.1
2017-Aug-09 06:00N 35°28' E 139°39'1 2.1
2017-Aug-09 05:30N 35°27' E 139°39'0 0.0
2017-Aug-09 05:00N 35°27' E 139°39'2 3.7
2017-Aug-09 04:30N 35°28' E 139°41'1 1.9
2017-Aug-09 04:00N 35°27' E 139°40'1 2.2
2017-Aug-09 03:30N 35°27' E 139°39'1 1.0
2017-Aug-09 03:00N 35°27' E 139°39'0 0.0
2017-Aug-09 02:30N 35°27' E 139°39'0 0.0
2017-Aug-09 02:00N 35°27' E 139°39'0 0.0
2017-Aug-09 01:30N 35°27' E 139°39'0 0.0
2017-Aug-09 01:00N 35°27' E 139°39'  

Dump ship's entire track history